createdAt,value
2017-08-25T00:00:23.978Z,99.99
2017-08-25T00:01:23.990Z,99.99
2017-08-25T00:02:24.390Z,99.99
2017-08-25T00:03:24.424Z,99.99
2017-08-25T00:04:24.870Z,99.99
2017-08-25T00:05:24.903Z,99.99
2017-08-25T00:06:24.939Z,99.99
2017-08-25T00:07:25.009Z,99.99
2017-08-25T00:08:25.394Z,99.99
2017-08-25T00:09:25.451Z,99.99
2017-08-25T00:10:25.134Z,99.99
2017-08-25T00:11:25.458Z,99.99
2017-08-25T00:12:25.849Z,99.99
2017-08-25T00:13:25.874Z,99.99
2017-08-25T00:14:25.890Z,99.99
2017-08-25T00:15:25.941Z,99.99
2017-08-25T00:16:25.969Z,99.99
2017-08-25T00:17:26.376Z,99.99
2017-08-25T00:18:35.531Z,99.99
2017-08-25T00:19:26.500Z,99.99
2017-08-25T00:20:26.251Z,99.99
2017-08-25T00:21:26.889Z,99.99
2017-08-25T00:22:26.656Z,99.99
2017-08-25T00:23:27.359Z,99.99
2017-08-25T00:24:27.363Z,99.99
2017-08-25T00:25:27.686Z,99.99
2017-08-25T00:26:27.717Z,99.99
2017-08-25T00:27:27.753Z,99.99
2017-08-25T00:28:28.117Z,99.99
2017-08-25T00:29:28.480Z,99.99
2017-08-25T00:30:28.525Z,99.99
2017-08-25T00:31:28.884Z,99.99
2017-08-25T00:33:03.007Z,99.99
2017-08-25T00:33:31.318Z,99.99
2017-08-25T00:34:31.348Z,99.99
2017-08-25T00:35:31.049Z,99.99
2017-08-25T00:36:31.743Z,99.99
2017-08-25T00:37:31.760Z,99.99
2017-08-25T00:38:31.785Z,99.99
2017-08-25T00:39:31.511Z,99.99
2017-08-25T00:40:32.153Z,99.99
2017-08-25T00:41:31.851Z,99.99
2017-08-25T00:42:32.195Z,99.99
2017-08-25T00:43:32.243Z,99.99
2017-08-25T00:44:32.276Z,99.99
2017-08-25T00:45:32.293Z,99.99
2017-08-25T00:46:32.019Z,99.99
2017-08-25T00:47:32.713Z,99.99
2017-08-25T00:48:32.735Z,99.99
2017-08-25T00:49:32.754Z,99.99
2017-08-25T00:50:32.443Z,99.99
2017-08-25T00:51:32.811Z,99.99
2017-08-25T00:52:32.846Z,99.99
2017-08-25T00:53:32.894Z,99.99
2017-08-25T00:54:32.585Z,99.99
2017-08-25T00:55:32.954Z,99.99
2017-08-25T00:56:32.652Z,99.99
2017-08-25T00:57:33.010Z,99.99
2017-08-25T00:58:33.038Z,99.99
2017-08-25T00:59:33.101Z,99.99
2017-08-25T01:00:33.111Z,99.99
2017-08-25T01:01:32.815Z,99.99
2017-08-25T01:02:33.494Z,99.99
2017-08-25T01:03:33.552Z,99.99
2017-08-25T01:04:33.223Z,99.99
2017-08-25T01:05:33.859Z,99.99
2017-08-25T01:06:33.889Z,99.99
2017-08-25T01:07:33.925Z,99.99
2017-08-25T01:08:33.940Z,99.99
2017-08-25T01:09:33.995Z,99.99
2017-08-25T01:10:34.066Z,99.99
2017-08-25T01:11:34.092Z,99.99
2017-08-25T01:12:34.121Z,99.99
2017-08-25T01:13:34.157Z,99.99
2017-08-25T01:14:34.193Z,99.99
2017-08-25T01:15:33.889Z,99.99
2017-08-25T01:16:34.188Z,99.99
2017-08-25T01:17:34.557Z,99.99
2017-08-25T01:18:34.599Z,99.99
2017-08-25T01:19:34.618Z,99.99
2017-08-25T01:20:34.648Z,99.99
2017-08-25T01:21:34.687Z,99.99
2017-08-25T01:22:34.734Z,99.99
2017-08-25T01:23:34.770Z,99.99
2017-08-25T01:24:34.787Z,99.99
2017-08-25T01:25:34.645Z,99.99
2017-08-25T01:26:34.857Z,99.99
2017-08-25T01:27:34.885Z,99.99
2017-08-25T01:28:34.961Z,99.99
2017-08-25T01:29:34.634Z,99.99
2017-08-25T01:30:34.982Z,99.99
2017-08-25T01:31:34.701Z,99.99
2017-08-25T01:32:35.338Z,99.99
2017-08-25T01:33:35.375Z,99.99
2017-08-25T01:34:35.421Z,99.99
2017-08-25T01:35:35.448Z,99.99
2017-08-25T01:36:35.469Z,99.99
2017-08-25T01:37:35.544Z,99.99
2017-08-25T01:38:35.540Z,99.99
2017-08-25T01:39:35.578Z,99.99
2017-08-25T01:40:35.273Z,99.99
2017-08-25T01:41:35.653Z,99.99
2017-08-25T01:42:35.991Z,99.99
2017-08-25T01:43:36.034Z,99.99
2017-08-25T01:44:36.078Z,99.99
2017-08-25T01:45:36.085Z,99.99
2017-08-25T01:46:36.137Z,99.99
2017-08-25T01:47:36.187Z,99.99
2017-08-25T01:48:36.183Z,99.99
2017-08-25T01:49:35.891Z,99.99
2017-08-25T01:50:36.256Z,99.99
2017-08-25T01:51:35.969Z,99.99
2017-08-25T01:52:36.306Z,99.99
2017-08-25T01:53:36.972Z,99.99
2017-08-25T01:54:36.999Z,99.99
2017-08-25T01:55:37.042Z,99.99
2017-08-25T01:56:37.070Z,99.99
2017-08-25T01:57:37.130Z,99.99
2017-08-25T01:58:37.140Z,99.99
2017-08-25T01:59:37.173Z,99.99
2017-08-25T02:00:37.203Z,99.99
2017-08-25T02:01:37.264Z,99.99
2017-08-25T02:02:37.287Z,99.99
2017-08-25T02:03:37.359Z,99.99
2017-08-25T02:04:37.334Z,99.99
2017-08-25T02:05:37.363Z,99.99
2017-08-25T02:06:37.403Z,99.99
2017-08-25T02:07:37.533Z,99.99
2017-08-25T02:08:37.469Z,99.99
2017-08-25T02:09:37.548Z,99.99
2017-08-25T02:10:37.207Z,99.99
2017-08-25T02:11:37.568Z,99.99
2017-08-25T02:12:37.598Z,99.99
2017-08-25T02:13:37.644Z,99.99
2017-08-25T02:14:37.670Z,99.99
2017-08-25T02:15:37.367Z,99.99
2017-08-25T02:16:38.116Z,99.99
2017-08-25T02:17:38.533Z,99.99
2017-08-25T02:18:38.200Z,99.99
2017-08-25T02:19:38.251Z,99.99
2017-08-25T02:20:38.264Z,99.99
2017-08-25T02:21:38.641Z,99.99
2017-08-25T02:22:38.952Z,99.99
2017-08-25T02:23:38.983Z,99.99
2017-08-25T02:24:38.703Z,99.99
2017-08-25T02:25:39.339Z,99.99
2017-08-25T02:26:39.376Z,99.99
2017-08-25T02:27:39.676Z,99.99
2017-08-25T02:28:40.040Z,99.99
2017-08-25T02:29:40.053Z,99.99
2017-08-25T02:30:40.062Z,99.99
2017-08-25T02:31:39.768Z,99.99
2017-08-25T02:32:39.806Z,99.99
2017-08-25T02:33:40.496Z,99.99
2017-08-25T02:34:40.510Z,99.99
2017-08-25T02:35:40.230Z,99.99
2017-08-25T02:36:40.585Z,99.99
2017-08-25T02:37:40.306Z,99.99
2017-08-25T02:38:40.356Z,99.99
2017-08-25T02:39:41.007Z,99.99
2017-08-25T02:40:41.053Z,99.99
2017-08-25T02:41:41.397Z,99.99
2017-08-25T02:42:41.435Z,99.99
2017-08-25T02:43:41.484Z,99.99
2017-08-25T02:44:41.819Z,99.99
2017-08-25T02:45:41.879Z,99.99
2017-08-25T02:46:41.555Z,99.99
2017-08-25T02:47:42.241Z,99.99
2017-08-25T02:48:42.304Z,99.99
2017-08-25T02:49:42.342Z,99.99
2017-08-25T02:50:42.376Z,99.99
2017-08-25T02:51:42.402Z,99.99
2017-08-25T02:52:42.101Z,99.99
2017-08-25T02:53:42.805Z,99.99
2017-08-25T02:54:42.811Z,99.99
2017-08-25T02:55:42.857Z,99.99
2017-08-25T02:56:42.907Z,99.99
2017-08-25T02:57:42.922Z,99.99
2017-08-25T02:58:42.618Z,99.99
2017-08-25T02:59:43.259Z,99.99
2017-08-25T03:00:43.293Z,99.99
2017-08-25T03:01:43.274Z,99.99
2017-08-25T03:02:43.625Z,99.99
2017-08-25T03:03:43.328Z,99.99
2017-08-25T03:04:43.689Z,99.99
2017-08-25T03:05:43.731Z,99.99
2017-08-25T03:06:43.759Z,99.99
2017-08-25T03:07:43.812Z,99.99
2017-08-25T03:08:43.819Z,99.99
2017-08-25T03:09:43.852Z,99.99
2017-08-25T03:10:43.991Z,99.99
2017-08-25T03:11:43.630Z,99.99
2017-08-25T03:12:44.258Z,99.99
2017-08-25T03:13:43.956Z,99.99
2017-08-25T03:14:44.320Z,99.99
2017-08-25T03:15:44.030Z,99.99
2017-08-25T03:16:44.388Z,99.99
2017-08-25T03:17:44.706Z,99.99
2017-08-25T03:18:44.758Z,99.99
2017-08-25T03:19:45.088Z,99.99
2017-08-25T03:20:45.122Z,99.99
2017-08-25T03:21:45.160Z,99.99
2017-08-25T03:22:45.187Z,99.99
2017-08-25T03:23:44.880Z,99.99
2017-08-25T03:24:45.260Z,99.99
2017-08-25T03:25:45.580Z,99.99
2017-08-25T03:26:45.922Z,99.99
2017-08-25T03:27:45.977Z,99.99
2017-08-25T03:28:46.312Z,99.99
2017-08-25T03:29:46.354Z,99.99
2017-08-25T03:30:47.070Z,99.99
2017-08-25T03:31:47.416Z,99.99
2017-08-25T03:32:47.444Z,99.99
2017-08-25T03:33:47.477Z,99.99
2017-08-25T03:34:47.509Z,99.99
2017-08-25T03:35:47.546Z,99.99
2017-08-25T03:36:47.881Z,99.99
2017-08-25T03:37:47.908Z,99.99
2017-08-25T03:38:47.937Z,99.99
2017-08-25T03:39:47.974Z,99.99
2017-08-25T03:40:48.009Z,99.99
2017-08-25T03:41:48.041Z,99.99
2017-08-25T03:42:48.082Z,99.99
2017-08-25T03:43:48.109Z,99.99
2017-08-25T03:44:48.139Z,99.99
2017-08-25T03:45:47.874Z,99.99
2017-08-25T03:46:47.884Z,99.99
2017-08-25T03:47:47.926Z,99.99
2017-08-25T03:48:48.599Z,99.99
2017-08-25T03:49:48.629Z,99.99
2017-08-25T03:50:48.667Z,99.99
2017-08-25T03:51:48.701Z,99.99
2017-08-25T03:52:48.726Z,99.99
2017-08-25T03:53:48.761Z,99.99
2017-08-25T03:54:49.068Z,99.99
2017-08-25T03:55:49.097Z,99.99
2017-08-25T03:56:48.805Z,99.99
2017-08-25T03:57:49.473Z,99.99
2017-08-25T03:58:49.501Z,99.99
2017-08-25T03:59:49.516Z,99.99
2017-08-25T04:00:49.914Z,99.99
2017-08-25T04:01:49.575Z,99.99
2017-08-25T04:02:49.603Z,99.99
2017-08-25T04:03:50.275Z,99.99
2017-08-25T04:04:50.003Z,99.99
2017-08-25T04:05:50.671Z,99.99
2017-08-25T04:06:50.695Z,99.99
2017-08-25T04:07:50.490Z,99.99
2017-08-25T04:08:50.840Z,99.99
2017-08-25T04:09:50.887Z,99.99
2017-08-25T04:10:50.915Z,99.99
2017-08-25T04:11:50.955Z,99.99
2017-08-25T04:12:50.646Z,99.99
2017-08-25T04:13:51.017Z,99.99
2017-08-25T04:14:51.053Z,99.99
2017-08-25T04:15:51.086Z,99.99
2017-08-25T04:16:51.120Z,99.99
2017-08-25T04:17:50.814Z,99.99
2017-08-25T04:18:51.445Z,99.99
2017-08-25T04:19:51.140Z,99.99
2017-08-25T04:20:51.508Z,99.99
2017-08-25T04:21:51.541Z,99.99
2017-08-25T04:22:51.572Z,99.99
2017-08-25T04:23:51.605Z,99.99
2017-08-25T04:24:51.649Z,99.99
2017-08-25T04:25:51.673Z,99.99
2017-08-25T04:26:51.493Z,99.99
2017-08-25T04:27:51.738Z,99.99
2017-08-25T04:28:51.779Z,99.99
2017-08-25T04:29:51.808Z,99.99
2017-08-25T04:30:52.143Z,99.99
2017-08-25T04:31:52.591Z,99.99
2017-08-25T04:32:52.521Z,99.99
2017-08-25T04:33:52.570Z,99.99
2017-08-25T04:34:52.600Z,99.99
2017-08-25T04:35:52.636Z,99.99
2017-08-25T04:36:52.677Z,99.99
2017-08-25T04:37:53.496Z,99.99
2017-08-25T04:38:53.188Z,99.99
2017-08-25T04:39:53.562Z,99.99
2017-08-25T04:40:53.601Z,99.99
2017-08-25T04:41:53.630Z,99.99
2017-08-25T04:42:53.658Z,99.99
2017-08-25T04:43:53.685Z,99.99
2017-08-25T04:44:53.728Z,99.99
2017-08-25T04:45:54.091Z,99.99
2017-08-25T04:46:54.130Z,99.99
2017-08-25T04:47:54.155Z,99.99
2017-08-25T04:48:54.174Z,99.99
2017-08-25T04:49:54.209Z,99.99
2017-08-25T04:50:54.547Z,99.99
2017-08-25T04:51:54.573Z,99.99
2017-08-25T04:52:54.625Z,99.99
2017-08-25T04:53:54.660Z,99.99
2017-08-25T04:54:54.687Z,99.99
2017-08-25T04:55:54.721Z,99.99
2017-08-25T04:56:54.429Z,99.99
2017-08-25T04:57:54.457Z,99.99
2017-08-25T04:58:54.483Z,99.99
2017-08-25T04:59:55.155Z,99.99
2017-08-25T05:00:55.192Z,99.99
2017-08-25T05:01:55.222Z,99.99
2017-08-25T05:02:55.256Z,99.99
2017-08-25T05:03:55.295Z,99.99
2017-08-25T05:04:55.324Z,99.99
2017-08-25T05:05:55.354Z,99.99
2017-08-25T05:06:55.385Z,99.99
2017-08-25T05:07:55.501Z,99.99
2017-08-25T05:08:55.458Z,99.99
2017-08-25T05:09:55.493Z,99.99
2017-08-25T05:10:55.836Z,99.99
2017-08-25T05:11:55.848Z,99.99
2017-08-25T05:12:55.567Z,99.99
2017-08-25T05:13:55.594Z,99.99
2017-08-25T05:14:55.967Z,99.99
2017-08-25T05:15:56.013Z,99.99
2017-08-25T05:16:56.030Z,99.99
2017-08-25T05:17:56.376Z,99.99
2017-08-25T05:18:56.396Z,99.99
2017-08-25T05:19:56.434Z,99.99
2017-08-25T05:20:56.462Z,99.99
2017-08-25T05:21:56.163Z,99.99
2017-08-25T05:22:56.513Z,99.99
2017-08-25T05:23:56.565Z,99.99
2017-08-25T05:24:56.932Z,99.99
2017-08-25T05:25:56.943Z,99.99
2017-08-25T05:26:56.995Z,99.99
2017-08-25T05:27:57.126Z,99.99
2017-08-25T05:28:57.499Z,99.99
2017-08-25T05:29:57.541Z,99.99
2017-08-25T05:30:57.864Z,99.99
2017-08-25T05:31:58.557Z,99.99
2017-08-25T05:32:58.583Z,99.99
2017-08-25T05:33:58.612Z,99.99
2017-08-25T05:34:58.995Z,99.99
2017-08-25T05:35:59.390Z,99.99
2017-08-25T05:36:59.423Z,99.99
2017-08-25T05:37:59.810Z,99.99
2017-08-25T05:38:59.158Z,99.99
2017-08-25T05:39:59.888Z,99.99
2017-08-25T05:40:59.912Z,99.99
2017-08-25T05:41:59.963Z,99.99
2017-08-25T05:42:59.993Z,99.99
2017-08-25T05:44:00.009Z,99.99
2017-08-25T05:45:00.060Z,99.99
2017-08-25T05:45:59.757Z,99.99
2017-08-25T05:47:00.165Z,99.99
2017-08-25T05:48:00.196Z,99.99
2017-08-25T05:48:59.896Z,99.99
2017-08-25T05:50:00.285Z,99.99
2017-08-25T05:51:00.305Z,99.99
2017-08-25T05:52:00.338Z,99.99
2017-08-25T05:53:00.696Z,99.99
2017-08-25T05:54:00.744Z,99.99
2017-08-25T05:55:00.766Z,99.99
2017-08-25T05:56:00.852Z,99.99
2017-08-25T05:57:00.848Z,99.99
2017-08-25T05:58:00.875Z,99.99
2017-08-25T05:59:00.625Z,99.99
2017-08-25T06:00:01.295Z,99.99
2017-08-25T06:01:01.325Z,99.99
2017-08-25T06:02:01.358Z,99.99
2017-08-25T06:03:01.399Z,99.99
2017-08-25T06:04:01.447Z,99.99
2017-08-25T06:05:01.466Z,99.99
2017-08-25T06:06:01.499Z,99.99
2017-08-25T06:07:01.538Z,99.99
2017-08-25T06:08:01.892Z,99.99
2017-08-25T06:09:01.612Z,99.99
2017-08-25T06:10:01.634Z,99.99
2017-08-25T06:11:01.684Z,99.99
2017-08-25T06:12:01.392Z,99.99
2017-08-25T06:13:02.138Z,99.99
2017-08-25T06:14:02.176Z,99.59
2017-08-25T06:15:02.213Z,99.21
2017-08-25T06:16:01.909Z,98.92
2017-08-25T06:17:01.953Z,98.54
2017-08-25T06:18:01.981Z,98.63
2017-08-25T06:19:02.650Z,97.96
2017-08-25T06:20:02.679Z,98.15
2017-08-25T06:21:02.716Z,98.15
2017-08-25T06:22:02.420Z,98.05
2017-08-25T06:23:02.793Z,98.34
2017-08-25T06:24:02.836Z,98.24
2017-08-25T06:25:02.533Z,98.63
2017-08-25T06:26:02.905Z,98.68
2017-08-25T06:27:02.936Z,98.87
2017-08-25T06:28:02.988Z,99.06
2017-08-25T06:29:03.042Z,99.11
2017-08-25T06:30:02.821Z,99.49
2017-08-25T06:31:03.518Z,99.98
2017-08-25T06:32:03.546Z,99.99
2017-08-25T06:33:03.252Z,99.99
2017-08-25T06:34:03.586Z,99.99
2017-08-25T06:35:03.991Z,99.99
2017-08-25T06:36:04.018Z,99.99
2017-08-25T06:37:04.031Z,99.99
2017-08-25T06:38:03.752Z,99.99
2017-08-25T06:39:04.442Z,99.99
2017-08-25T06:40:04.515Z,99.99
2017-08-25T06:41:04.509Z,99.99
2017-08-25T06:42:04.553Z,99.99
2017-08-25T06:43:04.584Z,99.99
2017-08-25T06:44:04.623Z,99.88
2017-08-25T06:45:04.716Z,99.93
2017-08-25T06:46:04.350Z,99.44
2017-08-25T06:47:04.720Z,98.97
2017-08-25T06:48:04.764Z,99.35
2017-08-25T06:49:04.802Z,99.16
2017-08-25T06:50:04.915Z,99.06
2017-08-25T06:51:05.301Z,99.3
2017-08-25T06:52:05.321Z,98.72
2017-08-25T06:53:05.682Z,98.44
2017-08-25T06:54:05.720Z,98.15
2017-08-25T06:55:06.035Z,97.57
2017-08-25T06:56:06.433Z,97.33
2017-08-25T06:57:06.451Z,96.66
2017-08-25T06:58:06.216Z,96.66
2017-08-25T06:59:06.591Z,96.56
2017-08-25T07:00:07.177Z,96.17
2017-08-25T07:01:06.590Z,96.46
2017-08-25T07:02:06.991Z,96.46
2017-08-25T07:03:07.026Z,96.37
2017-08-25T07:04:06.734Z,96.66
2017-08-25T07:05:07.143Z,96.66
2017-08-25T07:06:06.805Z,96.66
2017-08-25T07:07:07.493Z,96.66
2017-08-25T07:08:07.635Z,96.85
2017-08-25T07:09:07.560Z,96.66
2017-08-25T07:10:07.656Z,96.17
2017-08-25T07:11:07.989Z,96.08
2017-08-25T07:12:08.013Z,95.98
2017-08-25T07:13:08.059Z,96.66
2017-08-25T07:14:08.090Z,96.66
2017-08-25T07:15:08.125Z,97.14
2017-08-25T07:16:08.161Z,96.75
2017-08-25T07:17:08.196Z,96.94
2017-08-25T07:18:08.243Z,96.75
2017-08-25T07:19:08.271Z,96.17
2017-08-25T07:20:08.301Z,95.69
2017-08-25T07:21:08.014Z,95.54
2017-08-25T07:22:08.392Z,94.87
2017-08-25T07:23:08.094Z,94.58
2017-08-25T07:24:08.130Z,93.91
2017-08-25T07:25:08.493Z,93.76
2017-08-25T07:26:08.548Z,92.89
2017-08-25T07:27:08.920Z,92.26
2017-08-25T07:28:08.955Z,91.49
2017-08-25T07:29:08.989Z,90.86
2017-08-25T07:32:29.702Z,86.89
2017-08-25T07:33:29.675Z,86.89
2017-08-25T07:34:29.716Z,87.08
2017-08-25T07:35:29.392Z,86.89
2017-08-25T07:36:29.497Z,86.99
2017-08-25T07:37:30.098Z,87.37
2017-08-25T07:38:30.125Z,87.27
2017-08-25T07:39:30.522Z,86.6
2017-08-25T07:40:30.833Z,85.48
2017-08-25T07:41:30.556Z,83.98
2017-08-25T07:42:30.906Z,83.69
2017-08-25T07:43:30.966Z,83.11
2017-08-25T07:44:30.988Z,82.76
2017-08-25T07:45:31.294Z,82.32
2017-08-25T07:46:30.998Z,81.83
2017-08-25T07:47:31.357Z,82.03
2017-08-25T07:48:31.652Z,81.73
2017-08-25T07:49:32.290Z,80.9
2017-08-25T07:50:32.624Z,80.62
2017-08-25T07:51:32.644Z,80.52
2017-08-25T07:52:32.354Z,78.61
2017-08-25T07:53:32.720Z,79.1
2017-08-25T07:54:32.756Z,79.1
2017-08-25T07:55:32.800Z,78.42
2017-08-25T07:56:32.837Z,77.29
2017-08-25T07:57:32.871Z,75.47
2017-08-25T07:58:32.944Z,73.5
2017-08-25T07:59:32.965Z,71.11
2017-08-25T08:00:33.310Z,70.95
2017-08-25T08:01:33.372Z,70.01
2017-08-25T08:02:33.416Z,69.68
2017-08-25T08:03:33.432Z,69
2017-08-25T08:04:33.510Z,67.12
2017-08-25T08:05:33.511Z,66.47
2017-08-25T08:06:33.280Z,65.17
2017-08-25T08:07:33.681Z,63.38
2017-08-25T08:08:34.104Z,61.68
2017-08-25T08:09:34.101Z,60.76
2017-08-25T08:10:34.142Z,58.96
2017-08-25T08:11:34.863Z,58.33
2017-08-25T08:12:34.902Z,57.38
2017-08-25T08:13:34.954Z,56.42
2017-08-25T08:14:34.637Z,55.66
2017-08-25T08:15:35.018Z,55.89
2017-08-25T08:16:35.050Z,53.78
2017-08-25T08:17:35.136Z,53.31
2017-08-25T08:18:35.154Z,51.86
2017-08-25T08:19:35.201Z,51.57
2017-08-25T08:20:34.910Z,50.59
2017-08-25T08:21:35.256Z,51.18
2017-08-25T08:22:35.312Z,51.93
2017-08-25T08:23:35.344Z,52.6
2017-08-25T08:24:35.383Z,52.6
2017-08-25T08:25:35.092Z,51.91
2017-08-25T08:26:35.466Z,51.91
2017-08-25T08:27:35.862Z,51.12
2017-08-25T08:28:35.571Z,51.89
2017-08-25T08:29:35.966Z,53.5
2017-08-25T08:30:36.022Z,54.6
2017-08-25T08:31:36.044Z,55.26
2017-08-25T08:32:36.098Z,55.07
2017-08-25T08:33:36.145Z,54.41
2017-08-25T08:34:36.516Z,54.53
2017-08-25T08:35:36.917Z,53.5
2017-08-25T08:36:36.963Z,52.84
2017-08-25T08:37:36.686Z,53.8
2017-08-25T08:38:37.086Z,53.38
2017-08-25T08:39:36.792Z,52.42
2017-08-25T08:40:37.152Z,52.23
2017-08-25T08:41:36.887Z,52.35
2017-08-25T08:42:36.931Z,51.47
2017-08-25T08:43:37.668Z,52.03
2017-08-25T08:44:37.715Z,51.84
2017-08-25T08:45:37.746Z,52.33
2017-08-25T08:46:38.415Z,51.57
2017-08-25T08:47:38.785Z,51.03
2017-08-25T08:48:38.484Z,50.66
2017-08-25T08:49:38.865Z,50.56
2017-08-25T08:50:38.933Z,50.29
2017-08-25T08:51:39.288Z,50.68
2017-08-25T08:52:39.676Z,51.07
2017-08-25T08:53:39.381Z,51.05
2017-08-25T08:54:39.760Z,51.1
2017-08-25T08:55:39.822Z,52.23
2017-08-25T08:56:39.874Z,54.21
2017-08-25T08:57:39.629Z,56.68
2017-08-25T08:58:39.973Z,57.87
2017-08-25T08:59:39.732Z,58.69
2017-08-25T09:00:40.063Z,61
2017-08-25T09:01:40.415Z,61.92
2017-08-25T09:02:40.451Z,61.6
2017-08-25T09:03:40.541Z,61.33
2017-08-25T09:04:40.253Z,61.56
2017-08-25T09:05:40.915Z,62.41
2017-08-25T09:06:40.960Z,63.02
2017-08-25T09:07:41.012Z,64
2017-08-25T09:08:41.054Z,64.65
2017-08-25T09:09:41.069Z,64.72
2017-08-25T09:10:41.120Z,65.17
2017-08-25T09:11:41.156Z,64.49
2017-08-25T09:12:41.189Z,63.55
2017-08-25T09:13:40.920Z,63.68
2017-08-25T09:14:41.235Z,63.68
2017-08-25T09:15:41.982Z,60.62
2017-08-25T09:16:42.019Z,59.05
2017-08-25T09:17:42.061Z,57.48
2017-08-25T09:18:41.780Z,56.46
2017-08-25T09:19:41.825Z,55.6
2017-08-25T09:20:42.222Z,55.9
2017-08-25T09:21:42.271Z,56.16
2017-08-25T09:22:42.296Z,56.82
2017-08-25T09:23:42.365Z,56.7
2017-08-25T09:24:42.378Z,56.89
2017-08-25T09:25:42.442Z,57.54
2017-08-25T09:26:42.522Z,57.71
2017-08-25T09:27:42.871Z,59.05
2017-08-25T09:28:42.918Z,60
2017-08-25T09:29:42.961Z,60.88
2017-08-25T09:30:42.668Z,61.24
2017-08-25T09:31:43.387Z,60.78
2017-08-25T09:32:43.388Z,60.13
2017-08-25T09:33:43.469Z,59.83
2017-08-25T09:34:43.814Z,57.35
2017-08-25T09:35:43.883Z,56.52
2017-08-25T09:36:43.961Z,55.6
2017-08-25T09:37:44.342Z,54.46
2017-08-25T09:38:44.364Z,53.63
2017-08-25T09:39:44.729Z,53.28
2017-08-25T09:40:44.781Z,53.67
2017-08-25T09:41:44.838Z,53.58
2017-08-25T09:42:44.865Z,53.43
2017-08-25T09:43:45.260Z,54.85
2017-08-25T09:44:45.639Z,55.96
2017-08-25T09:45:45.662Z,57.38
2017-08-25T09:46:46.085Z,58.72
2017-08-25T09:47:46.114Z,58.95
2017-08-25T09:48:46.464Z,58.95
2017-08-25T09:49:46.163Z,59.54
2017-08-25T09:50:46.536Z,61.07
2017-08-25T09:51:46.280Z,61.24
2017-08-25T09:52:46.655Z,61.24
2017-08-25T09:53:46.684Z,61.04
2017-08-25T09:54:46.729Z,61.6
2017-08-25T09:55:46.435Z,62.41
2017-08-25T09:56:46.823Z,63.94
2017-08-25T09:57:46.867Z,65.53
2017-08-25T09:58:46.889Z,67.11
2017-08-25T09:59:46.618Z,67.76
2017-08-25T10:00:46.969Z,68.99
2017-08-25T10:01:46.721Z,69.54
2017-08-25T10:02:47.364Z,70.18
2017-08-25T10:03:47.113Z,70.67
2017-08-25T10:04:47.150Z,70.63
2017-08-25T10:05:47.527Z,68.76
2017-08-25T10:06:47.531Z,66.02
2017-08-25T10:07:47.623Z,62.35
2017-08-25T10:08:47.290Z,59.64
2017-08-25T10:09:47.694Z,57.29
2017-08-25T10:10:47.712Z,56.18
2017-08-25T10:11:47.463Z,56.27
2017-08-25T10:12:47.740Z,54.69
2017-08-25T10:13:48.138Z,52.94
2017-08-25T10:14:48.196Z,50.76
2017-08-25T10:15:48.249Z,49.55
2017-08-25T10:16:48.572Z,48.94
2017-08-25T10:17:48.628Z,47.43
2017-08-25T10:18:48.324Z,46.48
2017-08-25T10:19:48.377Z,45.82
2017-08-25T10:20:48.766Z,44.56
2017-08-25T10:21:48.776Z,44.78
2017-08-25T10:22:48.823Z,43.8
2017-08-25T10:23:48.861Z,43.8
2017-08-25T10:24:48.923Z,44.9
2017-08-25T10:25:48.973Z,45.57
2017-08-25T10:26:48.983Z,44.46
2017-08-25T10:27:48.786Z,45.64
2017-08-25T10:28:49.426Z,46.48
2017-08-25T10:29:49.459Z,47.97
2017-08-25T10:30:49.179Z,49.13
2017-08-25T10:31:49.576Z,51
2017-08-25T10:32:49.587Z,53.64
2017-08-25T10:33:49.317Z,54.74
2017-08-25T10:34:49.627Z,55.79
2017-08-25T10:35:50.331Z,56.15
2017-08-25T10:36:50.667Z,57.26
2017-08-25T10:37:50.709Z,58.38
2017-08-25T10:38:51.132Z,57.89
2017-08-25T10:39:51.171Z,56.97
2017-08-25T10:40:51.517Z,56.02
2017-08-25T10:41:51.539Z,54.61
2017-08-25T10:42:51.935Z,53.23
2017-08-25T10:43:51.663Z,52.98
2017-08-25T10:44:52.016Z,51.49
2017-08-25T10:45:52.034Z,50.07
2017-08-25T10:46:52.069Z,49.23
2017-08-25T10:47:51.844Z,47.63
2017-08-25T10:48:52.493Z,46.72
2017-08-25T10:49:52.540Z,45.95
2017-08-25T10:50:52.619Z,45.7
2017-08-25T10:51:52.298Z,45.6
2017-08-25T10:52:52.377Z,45.1
2017-08-25T10:53:52.742Z,44.89
2017-08-25T10:54:53.180Z,45.56
2017-08-25T10:55:53.168Z,45.73
2017-08-25T10:56:53.244Z,46.79
2017-08-25T10:57:52.950Z,46.87
2017-08-25T10:58:53.671Z,47.61
2017-08-25T10:59:53.690Z,49.35
2017-08-25T11:00:53.706Z,50.66
2017-08-25T11:01:53.797Z,51.37
2017-08-25T11:02:54.195Z,52.37
2017-08-25T11:03:54.544Z,53.39
2017-08-25T11:04:54.571Z,53.93
2017-08-25T11:05:54.307Z,54.1
2017-08-25T11:06:55.030Z,53.44
2017-08-25T11:07:55.072Z,52.71
2017-08-25T11:08:55.083Z,53.55
2017-08-25T11:09:55.097Z,52.79
2017-08-25T11:10:55.143Z,51.34
2017-08-25T11:11:54.871Z,50.46
2017-08-25T11:12:55.235Z,48.77
2017-08-25T11:13:55.281Z,46.79
2017-08-25T11:14:54.976Z,44.71
2017-08-25T11:15:55.346Z,45.13
2017-08-25T11:16:55.057Z,44.12
2017-08-25T11:17:55.443Z,45.78
2017-08-25T11:18:55.140Z,46
2017-08-25T11:19:55.507Z,46.87
2017-08-25T11:20:55.909Z,48.08
2017-08-25T11:21:55.605Z,49.77
2017-08-25T11:22:56.000Z,51.46
2017-08-25T11:23:55.682Z,52.15
2017-08-25T11:24:56.415Z,54.22
2017-08-25T11:25:56.150Z,54.83
2017-08-25T11:26:56.504Z,54.9
2017-08-25T11:27:56.208Z,54.05
2017-08-25T11:28:56.586Z,52.27
2017-08-25T11:29:57.031Z,52.2
2017-08-25T11:30:56.731Z,52.2
2017-08-25T11:31:57.085Z,51.64
2017-08-25T11:32:56.786Z,50.71
2017-08-25T11:33:57.169Z,50.9
2017-08-25T11:34:57.206Z,52.42
2017-08-25T11:35:57.357Z,54.13
2017-08-25T11:36:57.786Z,55.44
2017-08-25T11:37:57.804Z,56.65
2017-08-25T11:38:57.845Z,57.18
2017-08-25T11:39:57.557Z,58.1
2017-08-25T11:40:57.962Z,59.43
2017-08-25T11:41:58.048Z,60.25
2017-08-25T11:42:58.353Z,61.29
2017-08-25T11:43:58.405Z,62.88
2017-08-25T11:44:59.082Z,63.46
2017-08-25T11:45:58.803Z,63.43
2017-08-25T11:46:59.181Z,63.33
2017-08-25T11:47:59.220Z,64.14
2017-08-25T11:48:59.255Z,63.59
2017-08-25T11:49:58.949Z,63.52
2017-08-25T11:50:59.338Z,63.62
2017-08-25T11:51:59.380Z,63.65
2017-08-25T11:52:59.069Z,63.55
2017-08-25T11:53:59.444Z,63.36
2017-08-25T11:54:59.478Z,63.17
2017-08-25T11:55:59.905Z,62.97
2017-08-25T11:56:59.941Z,62.32
2017-08-25T11:57:59.979Z,62.13
2017-08-25T11:59:00.044Z,62.32
2017-08-25T12:00:00.072Z,62.03
2017-08-25T12:00:59.794Z,62.38
2017-08-25T12:02:00.141Z,62.87
2017-08-25T12:03:00.538Z,63.17
2017-08-25T12:04:01.262Z,63.26
2017-08-25T12:05:00.947Z,62.58
2017-08-25T12:06:01.647Z,63.23
2017-08-25T12:07:01.346Z,63.52
2017-08-25T12:08:01.762Z,64.36
2017-08-25T12:09:01.493Z,63.95
2017-08-25T12:10:01.848Z,64.04
2017-08-25T12:11:01.846Z,64.23
2017-08-25T12:12:01.905Z,64.33
2017-08-25T12:13:01.950Z,63.98
2017-08-25T12:14:03.197Z,64.01
2017-08-25T12:15:02.507Z,63.91
2017-08-25T12:16:02.545Z,62.26
2017-08-25T12:17:02.882Z,62.62
2017-08-25T12:18:03.229Z,63.56
2017-08-25T12:19:03.020Z,64.01
2017-08-25T12:20:03.154Z,64.27
2017-08-25T12:21:03.127Z,65.24
2017-08-25T12:22:03.134Z,66.75
2017-08-25T12:23:03.123Z,67.34
2017-08-25T12:24:03.157Z,67.69
2017-08-25T12:25:03.869Z,68.37
2017-08-25T12:26:04.235Z,68.85
2017-08-25T12:27:04.250Z,68.56
2017-08-25T12:28:04.308Z,68.08
2017-08-25T12:29:04.366Z,67.69
2017-08-25T12:30:04.469Z,67.66
2017-08-25T12:31:04.418Z,68.05
2017-08-25T12:32:04.494Z,67.85
2017-08-25T12:33:04.829Z,67.56
2017-08-25T12:34:04.891Z,68.15
2017-08-25T12:35:04.933Z,68.05
2017-08-25T12:36:04.971Z,67.46
2017-08-25T12:37:04.657Z,67.5
2017-08-25T12:38:05.026Z,67.88
2017-08-25T12:39:05.062Z,67.4
2017-08-25T12:40:05.084Z,66.72
2017-08-25T12:41:05.135Z,66.05
2017-08-25T12:42:05.223Z,66.92
2017-08-25T12:43:05.663Z,67.18
2017-08-25T12:44:05.719Z,67.53
2017-08-25T12:45:05.386Z,67.63
2017-08-25T12:46:05.753Z,67.91
2017-08-25T12:47:05.750Z,68.49
2017-08-25T12:48:05.770Z,68.88
2017-08-25T12:49:06.506Z,68.01
2017-08-25T12:50:06.556Z,67.33
2017-08-25T12:51:06.630Z,67.24
2017-08-25T12:52:06.661Z,66.69
2017-08-25T12:53:06.650Z,66.78
2017-08-25T12:54:06.686Z,66.2
2017-08-25T12:55:07.098Z,65.72
2017-08-25T12:56:06.825Z,66.08
2017-08-25T12:57:06.530Z,66.75
2017-08-25T12:58:06.606Z,67.43